createdAt,value
2018-07-11T00:00:31.099Z,22.20
2018-07-11T00:03:44.648Z,22.20
2018-07-11T00:06:52.251Z,22.20
2018-07-11T00:10:00.539Z,22.20
2018-07-11T00:13:09.485Z,22.20
2018-07-11T00:16:17.918Z,22.20
2018-07-11T00:19:27.597Z,22.20
2018-07-11T00:22:35.232Z,22.10
2018-07-11T00:25:43.680Z,22.20
2018-07-11T00:28:52.130Z,22.20
2018-07-11T00:32:01.515Z,22.20
2018-07-11T00:35:09.121Z,22.20
2018-07-11T00:38:17.307Z,22.20
2018-07-11T00:44:25.801Z,22.10
2018-07-11T00:47:34.648Z,22.10
2018-07-11T00:50:43.719Z,22.10
2018-07-11T00:53:51.911Z,22.10
2018-07-11T00:57:00.893Z,22.10
2018-07-11T01:00:10.849Z,22.10
2018-07-11T01:09:24.015Z,22.10
2018-07-11T01:12:33.793Z,22.10
2018-07-11T01:15:43.682Z,22.10
2018-07-11T01:18:53.047Z,22.10
2018-07-11T01:22:01.798Z,22.10
2018-07-11T01:25:11.779Z,22.10
2018-07-11T01:28:21.143Z,22.00
2018-07-11T01:31:30.825Z,22.00
2018-07-11T01:34:40.815Z,22.00
2018-07-11T01:37:49.109Z,22.00
2018-07-11T01:40:57.663Z,22.00
2018-07-11T01:44:08.221Z,22.00
2018-07-11T01:47:17.543Z,22.00
2018-07-11T01:50:26.771Z,22.00
2018-07-11T01:53:37.002Z,22.00
2018-07-11T01:56:48.145Z,22.00
2018-07-11T02:00:00.991Z,22.00
2018-07-11T02:03:10.443Z,22.00
2018-07-11T02:06:19.481Z,22.00
2018-07-11T02:09:29.159Z,22.10
2018-07-11T02:12:39.257Z,22.00
2018-07-11T02:15:49.044Z,22.00
2018-07-11T02:18:57.255Z,22.00
2018-07-11T02:22:06.135Z,22.00
2018-07-11T02:28:16.161Z,22.00
2018-07-11T02:31:24.587Z,22.00
2018-07-11T02:34:37.814Z,22.00
2018-07-11T02:37:47.496Z,22.00
2018-07-11T02:40:57.274Z,22.00
2018-07-11T02:44:05.649Z,22.00
2018-07-11T02:47:18.821Z,22.00
2018-07-11T02:50:26.417Z,22.00
2018-07-11T02:53:40.153Z,21.90
2018-07-11T02:56:48.241Z,21.90
2018-07-11T02:59:57.017Z,21.90
2018-07-11T03:03:05.967Z,21.90
2018-07-11T03:06:14.191Z,21.90
2018-07-11T03:09:22.175Z,22.00
2018-07-11T03:12:30.535Z,22.00
2018-07-11T03:15:38.858Z,22.00
2018-07-11T03:18:48.394Z,22.00
2018-07-11T03:21:56.835Z,21.90
2018-07-11T03:28:04.810Z,21.90
2018-07-11T03:31:13.015Z,21.90
2018-07-11T03:34:24.258Z,21.90
2018-07-11T03:37:32.481Z,21.90
2018-07-11T03:40:41.848Z,21.90
2018-07-11T03:43:51.209Z,21.90
2018-07-11T03:46:59.639Z,21.90
2018-07-11T03:50:07.814Z,21.90
2018-07-11T03:53:16.151Z,21.90
2018-07-11T03:56:24.293Z,22.00
2018-07-11T03:59:33.443Z,21.90
2018-07-11T04:02:43.223Z,21.90
2018-07-11T04:05:52.389Z,21.90
2018-07-11T04:09:01.117Z,21.90
2018-07-11T04:12:09.963Z,21.90
2018-07-11T04:15:18.296Z,22.00
2018-07-11T04:18:33.467Z,22.00
2018-07-11T04:21:44.157Z,22.00
2018-07-11T04:24:53.379Z,22.00
2018-07-11T04:28:02.621Z,21.90
2018-07-11T04:31:12.393Z,21.90
2018-07-11T04:34:21.789Z,21.90
2018-07-11T04:37:30.513Z,21.90
2018-07-11T04:40:40.287Z,21.90
2018-07-11T04:43:50.200Z,21.90
2018-07-11T04:46:58.161Z,22.00
2018-07-11T04:53:07.334Z,21.90
2018-07-11T04:56:21.273Z,22.00
2018-07-11T04:59:30.861Z,22.00
2018-07-11T05:02:39.605Z,22.00
2018-07-11T05:05:48.126Z,22.00
2018-07-11T05:09:01.149Z,22.00
2018-07-11T05:12:09.165Z,22.00
2018-07-11T05:15:17.584Z,21.90
2018-07-11T05:18:26.730Z,21.90
2018-07-11T05:21:40.283Z,22.00
2018-07-11T05:24:49.123Z,22.00
2018-07-11T05:27:59.222Z,22.00
2018-07-11T05:31:08.982Z,22.10
2018-07-11T05:34:18.893Z,22.10
2018-07-11T05:37:27.524Z,22.10
2018-07-11T05:40:36.069Z,22.00
2018-07-11T05:43:46.712Z,22.00
2018-07-11T05:46:58.454Z,22.00
2018-07-11T05:50:07.600Z,22.00
2018-07-11T05:53:18.115Z,22.00
2018-07-11T05:56:27.754Z,22.00
2018-07-11T06:02:34.641Z,22.10
2018-07-11T06:08:44.156Z,22.10
2018-07-11T06:11:53.207Z,22.00
2018-07-11T06:15:02.260Z,22.00
2018-07-11T06:18:11.266Z,22.00
2018-07-11T06:21:19.119Z,22.00
2018-07-11T06:24:28.618Z,22.00
2018-07-11T06:27:38.772Z,21.90
2018-07-11T06:30:47.154Z,22.00
2018-07-11T06:33:55.266Z,22.00
2018-07-11T06:37:04.372Z,22.00
2018-07-11T06:40:15.384Z,22.00
2018-07-11T06:43:23.413Z,22.00
2018-07-11T06:46:31.466Z,22.00
2018-07-11T06:49:39.534Z,22.00
2018-07-11T06:52:50.150Z,21.90
2018-07-11T06:55:59.103Z,21.90
2018-07-11T06:59:08.674Z,21.90
2018-07-11T07:02:18.247Z,21.90
2018-07-11T07:05:27.195Z,21.90
2018-07-11T07:08:36.978Z,21.90
2018-07-11T07:11:47.296Z,21.90
2018-07-11T07:17:55.780Z,22.00
2018-07-11T07:21:05.875Z,22.00
2018-07-11T07:24:14.958Z,21.90
2018-07-11T07:27:24.801Z,21.90
2018-07-11T07:30:35.538Z,21.90
2018-07-11T07:33:44.590Z,21.90
2018-07-11T07:36:53.270Z,21.90
2018-07-11T07:40:03.826Z,22.00
2018-07-11T07:43:12.023Z,21.90
2018-07-11T07:46:22.812Z,21.90
2018-07-11T07:49:31.520Z,21.90
2018-07-11T07:52:39.844Z,21.90
2018-07-11T07:55:49.729Z,21.90
2018-07-11T07:58:58.886Z,21.90
2018-07-11T08:02:06.598Z,21.90
2018-07-11T08:05:25.976Z,21.90
2018-07-11T08:08:33.858Z,21.80
2018-07-11T08:11:43.243Z,21.80
2018-07-11T08:14:53.545Z,21.80
2018-07-11T08:18:03.224Z,21.90
2018-07-11T08:21:11.938Z,21.90
2018-07-11T08:24:30.216Z,21.90
2018-07-11T08:27:52.736Z,21.90
2018-07-11T08:31:17.450Z,21.90
2018-07-11T08:34:56.482Z,21.90
2018-07-11T08:38:29.246Z,21.80
2018-07-11T08:41:57.788Z,21.80
2018-07-11T08:45:28.604Z,21.90
2018-07-11T08:49:00.130Z,21.80
2018-07-11T08:52:17.701Z,21.90
2018-07-11T08:57:55.503Z,21.90
2018-07-11T09:01:22.330Z,21.90
2018-07-11T09:05:19.396Z,21.90
2018-07-11T09:09:39.718Z,21.90
2018-07-11T09:13:01.302Z,21.90
2018-07-11T09:22:29.716Z,21.90
2018-07-11T09:25:39.380Z,21.80
2018-07-11T09:28:48.023Z,21.90
2018-07-11T09:31:56.437Z,21.80
2018-07-11T09:35:06.120Z,21.80
2018-07-11T09:38:14.916Z,21.90
2018-07-11T09:41:24.220Z,21.90
2018-07-11T09:44:33.302Z,21.90
2018-07-11T09:47:41.652Z,21.90
2018-07-11T09:50:49.550Z,21.90
2018-07-11T09:53:59.856Z,21.90
2018-07-11T09:57:08.253Z,21.90
2018-07-11T10:00:21.250Z,21.90
2018-07-11T10:03:31.972Z,21.80
2018-07-11T10:06:40.400Z,21.80
2018-07-11T10:09:48.902Z,21.90
2018-07-11T10:12:58.172Z,21.90
2018-07-11T10:16:07.024Z,21.90
2018-07-11T10:19:18.320Z,21.90
2018-07-11T10:22:28.471Z,21.90
2018-07-11T10:25:38.574Z,21.90
2018-07-11T10:28:47.506Z,21.90
2018-07-11T10:31:55.947Z,21.90
2018-07-11T10:35:04.166Z,21.90
2018-07-11T10:38:13.948Z,21.90
2018-07-11T10:41:22.636Z,21.90
2018-07-11T10:44:32.575Z,21.90
2018-07-11T10:47:42.259Z,21.90
2018-07-11T10:50:50.470Z,21.90
2018-07-11T10:53:58.508Z,22.00
2018-07-11T10:57:06.276Z,21.90
2018-07-11T11:03:15.920Z,21.90
2018-07-11T11:06:25.070Z,21.90
2018-07-11T11:09:34.826Z,21.90
2018-07-11T11:12:44.011Z,21.90
2018-07-11T11:15:51.814Z,21.90
2018-07-11T11:19:01.034Z,21.90
2018-07-11T11:22:10.864Z,21.80
2018-07-11T11:28:22.274Z,21.90
2018-07-11T11:31:30.804Z,21.90
2018-07-11T11:34:39.542Z,22.00
2018-07-11T11:37:50.685Z,22.00
2018-07-11T11:40:58.689Z,21.90
2018-07-11T11:44:08.321Z,21.90
2018-07-11T11:47:19.065Z,21.90
2018-07-11T11:50:28.143Z,21.90
2018-07-11T11:53:36.128Z,21.80
2018-07-11T11:56:45.302Z,21.90
2018-07-11T11:59:54.465Z,21.90
2018-07-11T12:03:03.623Z,21.90
2018-07-11T12:06:11.425Z,21.90
2018-07-11T12:09:20.056Z,21.90
2018-07-11T12:12:28.584Z,21.90
2018-07-11T12:15:38.261Z,22.00
2018-07-11T12:18:47.004Z,22.00
2018-07-11T12:21:54.278Z,22.00
2018-07-11T12:25:03.439Z,21.90
2018-07-11T12:28:12.278Z,21.90
2018-07-11T12:31:21.122Z,21.90
2018-07-11T12:34:29.430Z,21.90
2018-07-11T12:37:39.324Z,21.90
2018-07-11T12:40:48.358Z,21.90
2018-07-11T12:43:58.230Z,21.90
2018-07-11T12:47:08.168Z,21.90
2018-07-11T12:50:16.376Z,21.90
2018-07-11T12:53:25.590Z,21.90
2018-07-11T12:56:34.378Z,22.00
2018-07-11T13:05:42.522Z,21.90
2018-07-11T13:08:50.991Z,21.90
2018-07-11T13:12:00.628Z,21.90
2018-07-11T13:15:10.302Z,21.90
2018-07-11T13:18:20.299Z,21.90
2018-07-11T13:21:28.826Z,21.90
2018-07-11T13:24:37.768Z,22.00
2018-07-11T13:27:47.374Z,22.00
2018-07-11T13:30:58.280Z,22.00
2018-07-11T13:34:09.006Z,22.00
2018-07-11T13:37:18.786Z,22.10
2018-07-11T13:40:27.522Z,22.10
2018-07-11T13:43:37.239Z,22.10
2018-07-11T13:46:46.126Z,22.10
2018-07-11T13:49:55.412Z,22.00
2018-07-11T13:53:03.728Z,22.10
2018-07-11T13:56:13.619Z,22.00
2018-07-11T13:59:21.726Z,22.00
2018-07-11T14:02:30.481Z,22.00
2018-07-11T14:05:39.734Z,22.00
2018-07-11T14:08:48.375Z,22.00
2018-07-11T14:11:56.373Z,22.10
2018-07-11T14:15:05.602Z,22.10
2018-07-11T14:18:14.867Z,22.10
2018-07-11T14:21:23.659Z,22.10
2018-07-11T14:24:33.832Z,22.10
2018-07-11T14:27:43.119Z,22.10
2018-07-11T14:30:52.313Z,22.00
2018-07-11T14:37:03.249Z,22.00
2018-07-11T14:40:11.580Z,22.00
2018-07-11T14:43:21.150Z,22.00
2018-07-11T14:46:32.210Z,22.00
2018-07-11T14:49:41.445Z,22.00
2018-07-11T14:52:50.528Z,22.00
2018-07-11T14:56:00.803Z,22.00
2018-07-11T14:59:10.902Z,22.00
2018-07-11T15:02:22.144Z,22.00
2018-07-11T15:05:32.033Z,22.00
2018-07-11T15:08:42.887Z,22.00
2018-07-11T15:11:53.583Z,22.00
2018-07-11T15:15:01.783Z,22.00
2018-07-11T15:21:10.716Z,22.00
2018-07-11T15:24:18.551Z,22.00
2018-07-11T15:27:27.810Z,22.00
2018-07-11T15:30:35.619Z,22.00
2018-07-11T15:33:45.108Z,22.00
2018-07-11T15:36:54.092Z,22.00
2018-07-11T15:40:03.205Z,22.00
2018-07-11T15:43:11.984Z,22.00
2018-07-11T15:46:21.978Z,21.90
2018-07-11T15:49:31.379Z,21.90
2018-07-11T15:55:41.929Z,22.00
2018-07-11T15:58:57.922Z,21.90
2018-07-11T16:02:13.267Z,21.90
2018-07-11T16:05:22.736Z,22.00
2018-07-11T16:08:37.477Z,22.00
2018-07-11T16:11:46.704Z,22.00
2018-07-11T16:14:56.487Z,22.00
2018-07-11T16:18:04.550Z,22.00
2018-07-11T16:21:13.979Z,22.00
2018-07-11T16:24:21.544Z,22.00
2018-07-11T16:27:31.040Z,21.90
2018-07-11T16:30:40.200Z,21.90
2018-07-11T16:33:50.651Z,21.90
2018-07-11T16:36:59.245Z,21.90
2018-07-11T16:40:08.093Z,22.00
2018-07-11T16:43:17.187Z,22.00
2018-07-11T16:46:26.921Z,22.00
2018-07-11T16:49:36.708Z,22.00
2018-07-11T16:52:46.614Z,21.90
2018-07-11T16:55:55.867Z,22.00
2018-07-11T16:59:09.709Z,21.90
2018-07-11T17:02:21.225Z,21.90
2018-07-11T17:05:34.603Z,21.90
2018-07-11T17:08:46.123Z,22.10
2018-07-11T17:11:57.083Z,22.30
2018-07-11T17:15:05.043Z,22.50
2018-07-11T17:18:13.790Z,22.70
2018-07-11T17:21:23.511Z,22.80
2018-07-11T17:24:34.274Z,22.90
2018-07-11T17:27:45.482Z,23.00
2018-07-11T17:30:57.460Z,23.10
2018-07-11T17:34:05.152Z,23.20
2018-07-11T17:37:16.651Z,23.20
2018-07-11T17:40:31.407Z,23.30
2018-07-11T17:43:47.778Z,23.40
2018-07-11T17:50:11.513Z,23.60
2018-07-11T17:56:29.930Z,23.70
2018-07-11T17:59:41.203Z,23.70
2018-07-11T18:03:01.087Z,23.80
2018-07-11T18:06:20.355Z,23.80
2018-07-11T18:09:33.818Z,23.80
2018-07-11T18:12:44.750Z,23.80
2018-07-11T18:16:01.532Z,23.90
2018-07-11T18:24:34.583Z,24.00
2018-07-11T18:27:54.499Z,24.10
2018-07-11T18:34:22.627Z,24.10
2018-07-11T18:39:42.662Z,24.20
2018-07-11T18:43:06.960Z,24.20
2018-07-11T18:48:32.841Z,24.20
2018-07-11T18:51:51.591Z,24.30
2018-07-11T18:55:46.094Z,24.40
2018-07-11T18:59:05.989Z,24.40
2018-07-11T19:04:31.267Z,24.40
2018-07-11T19:07:57.025Z,24.40
2018-07-11T19:11:15.123Z,24.50
2018-07-11T19:14:38.947Z,24.50
2018-07-11T19:17:55.413Z,24.50
2018-07-11T19:21:09.167Z,24.60
2018-07-11T19:24:29.497Z,24.60
2018-07-11T19:27:53.224Z,24.70
2018-07-11T19:31:12.459Z,24.70
2018-07-11T19:34:29.865Z,24.70
2018-07-11T19:40:01.209Z,24.70
2018-07-11T19:45:52.129Z,24.70
2018-07-11T19:49:11.582Z,24.80
2018-07-11T19:52:40.731Z,24.90
2018-07-11T19:55:59.915Z,24.80
2018-07-11T19:59:10.539Z,24.80
2018-07-11T20:02:19.117Z,24.80
2018-07-11T20:05:30.935Z,24.80
2018-07-11T20:11:40.057Z,24.80
2018-07-11T20:14:48.764Z,24.90
2018-07-11T20:17:59.207Z,24.90
2018-07-11T20:21:07.738Z,24.90
2018-07-11T20:24:17.521Z,24.90
2018-07-11T20:27:25.945Z,24.90
2018-07-11T20:30:35.146Z,24.90
2018-07-11T20:33:44.859Z,24.90
2018-07-11T20:36:54.680Z,24.90
2018-07-11T20:40:02.988Z,24.90
2018-07-11T20:43:12.248Z,24.90
2018-07-11T20:46:20.698Z,24.90
2018-07-11T20:49:35.581Z,25.00
2018-07-11T20:52:45.151Z,25.00
2018-07-11T20:55:53.471Z,24.90
2018-07-11T20:59:13.801Z,25.00
2018-07-11T21:02:33.927Z,25.00
2018-07-11T21:05:53.522Z,25.00
2018-07-11T21:09:31.820Z,25.00
2018-07-11T21:13:03.330Z,25.00
2018-07-11T21:16:37.244Z,24.90
2018-07-11T21:19:46.259Z,25.00
2018-07-11T21:22:54.363Z,25.00
2018-07-11T21:26:02.373Z,25.00
2018-07-11T21:29:11.126Z,25.10
2018-07-11T21:35:21.528Z,25.10
2018-07-11T21:38:30.054Z,25.10
2018-07-11T21:41:39.106Z,25.10
2018-07-11T21:44:48.268Z,25.10
2018-07-11T21:47:58.256Z,25.10
2018-07-11T21:51:09.193Z,25.10
2018-07-11T21:54:18.557Z,25.10
2018-07-11T21:57:27.091Z,25.10
2018-07-11T22:00:55.671Z,25.10
2018-07-11T22:04:03.989Z,25.20
2018-07-11T22:07:12.727Z,25.10
2018-07-11T22:10:21.681Z,25.20
2018-07-11T22:13:31.735Z,25.20
2018-07-11T22:16:41.661Z,25.20
2018-07-11T22:19:53.391Z,25.00
2018-07-11T22:22:59.433Z,24.70
2018-07-11T22:26:05.790Z,24.60
2018-07-11T22:29:14.039Z,24.30
2018-07-11T22:32:20.348Z,24.10
2018-07-11T22:35:27.932Z,24.00
2018-07-11T22:38:33.852Z,23.90
2018-07-11T22:41:40.189Z,23.80
2018-07-11T22:44:46.366Z,23.80
2018-07-11T22:47:52.442Z,23.70
2018-07-11T22:53:59.266Z,23.60
2018-07-11T22:57:05.803Z,23.50
2018-07-11T23:00:12.192Z,23.50
2018-07-11T23:03:20.332Z,23.40
2018-07-11T23:06:28.375Z,23.30
2018-07-11T23:09:35.002Z,23.30
2018-07-11T23:12:41.148Z,23.20
2018-07-11T23:15:49.156Z,23.20
2018-07-11T23:18:55.165Z,23.30
2018-07-11T23:22:01.311Z,23.20
2018-07-11T23:25:08.898Z,23.20
2018-07-11T23:28:16.906Z,23.10
2018-07-11T23:31:23.243Z,23.10
2018-07-11T23:34:29.011Z,23.00
2018-07-11T23:40:34.423Z,23.00
2018-07-11T23:43:40.001Z,23.00
2018-07-11T23:46:46.671Z,23.00
2018-07-11T23:49:53.217Z,23.00
2018-07-11T23:52:59.899Z,23.00
2018-07-11T23:56:06.439Z,22.90
2018-07-11T23:59:13.610Z,22.90
